sensor_id;sensor_type;location;lat;lon;timestamp;P1;durP1;ratioP1;P2;durP2;ratioP2
4096;SDS011;2062;50.694;7.246;2023-12-20T00:02:18;5.00;;;2.00;;
4096;SDS011;2062;50.694;7.246;2023-12-20T00:04:45;5.47;;;2.10;;
4096;SDS011;2062;50.694;7.246;2023-12-20T00:07:12;5.00;;;1.90;;
4096;SDS011;2062;50.694;7.246;2023-12-20T00:09:38;4.82;;;2.00;;
4096;SDS011;2062;50.694;7.246;2023-12-20T00:12:05;4.35;;;1.60;;
4096;SDS011;2062;50.694;7.246;2023-12-20T00:14:34;4.80;;;2.05;;
4096;SDS011;2062;50.694;7.246;2023-12-20T00:17:00;5.70;;;2.17;;
4096;SDS011;2062;50.694;7.246;2023-12-20T00:19:27;4.88;;;2.10;;
4096;SDS011;2062;50.694;7.246;2023-12-20T00:21:54;4.75;;;1.95;;
4096;SDS011;2062;50.694;7.246;2023-12-20T00:24:21;5.40;;;2.10;;
4096;SDS011;2062;50.694;7.246;2023-12-20T00:26:47;4.63;;;1.92;;
4096;SDS011;2062;50.694;7.246;2023-12-20T00:29:14;5.10;;;1.70;;
4096;SDS011;2062;50.694;7.246;2023-12-20T00:31:42;6.53;;;1.90;;
4096;SDS011;2062;50.694;7.246;2023-12-20T00:34:09;4.32;;;1.50;;
4096;SDS011;2062;50.694;7.246;2023-12-20T00:36:36;4.85;;;1.70;;
4096;SDS011;2062;50.694;7.246;2023-12-20T00:39:03;4.50;;;1.50;;
4096;SDS011;2062;50.694;7.246;2023-12-20T00:41:31;4.60;;;1.57;;
4096;SDS011;2062;50.694;7.246;2023-12-20T00:43:58;4.97;;;1.77;;
4096;SDS011;2062;50.694;7.246;2023-12-20T00:46:25;5.15;;;1.73;;
4096;SDS011;2062;50.694;7.246;2023-12-20T00:48:53;4.93;;;1.98;;
4096;SDS011;2062;50.694;7.246;2023-12-20T00:51:20;5.00;;;1.90;;
4096;SDS011;2062;50.694;7.246;2023-12-20T00:53:47;6.17;;;1.83;;
4096;SDS011;2062;50.694;7.246;2023-12-20T00:56:14;4.43;;;1.50;;
4096;SDS011;2062;50.694;7.246;2023-12-20T00:58:41;4.38;;;1.70;;
4096;SDS011;2062;50.694;7.246;2023-12-20T01:01:08;5.35;;;1.80;;
4096;SDS011;2062;50.694;7.246;2023-12-20T01:03:35;5.22;;;2.20;;
4096;SDS011;2062;50.694;7.246;2023-12-20T01:06:03;5.50;;;2.17;;
4096;SDS011;2062;50.694;7.246;2023-12-20T01:08:30;4.70;;;1.83;;
4096;SDS011;2062;50.694;7.246;2023-12-20T01:10:57;5.30;;;1.63;;
4096;SDS011;2062;50.694;7.246;2023-12-20T01:13:24;4.25;;;1.40;;
4096;SDS011;2062;50.694;7.246;2023-12-20T01:15:50;3.97;;;1.40;;
4096;SDS011;2062;50.694;7.246;2023-12-20T01:18:17;4.10;;;1.43;;
4096;SDS011;2062;50.694;7.246;2023-12-20T01:20:44;4.18;;;1.45;;
4096;SDS011;2062;50.694;7.246;2023-12-20T01:23:12;4.32;;;1.30;;
4096;SDS011;2062;50.694;7.246;2023-12-20T01:25:39;4.35;;;1.73;;
4096;SDS011;2062;50.694;7.246;2023-12-20T01:28:05;4.38;;;1.55;;
4096;SDS011;2062;50.694;7.246;2023-12-20T01:30:32;5.63;;;1.70;;
4096;SDS011;2062;50.694;7.246;2023-12-20T01:32:59;5.10;;;2.05;;
4096;SDS011;2062;50.694;7.246;2023-12-20T01:35:26;6.78;;;2.20;;
4096;SDS011;2062;50.694;7.246;2023-12-20T01:37:53;5.25;;;2.17;;
4096;SDS011;2062;50.694;7.246;2023-12-20T01:40:23;5.85;;;2.63;;
4096;SDS011;2062;50.694;7.246;2023-12-20T01:42:57;5.90;;;2.80;;
4096;SDS011;2062;50.694;7.246;2023-12-20T01:45:24;7.35;;;2.92;;
4096;SDS011;2062;50.694;7.246;2023-12-20T01:47:51;7.70;;;3.50;;
4096;SDS011;2062;50.694;7.246;2023-12-20T01:50:19;8.10;;;3.33;;
4096;SDS011;2062;50.694;7.246;2023-12-20T01:52:46;8.88;;;3.67;;
4096;SDS011;2062;50.694;7.246;2023-12-20T01:55:13;9.07;;;3.57;;
4096;SDS011;2062;50.694;7.246;2023-12-20T01:57:42;9.57;;;4.13;;
4096;SDS011;2062;50.694;7.246;2023-12-20T02:00:09;9.18;;;4.32;;
4096;SDS011;2062;50.694;7.246;2023-12-20T02:02:38;10.95;;;4.72;;
4096;SDS011;2062;50.694;7.246;2023-12-20T02:05:05;12.23;;;4.82;;
4096;SDS011;2062;50.694;7.246;2023-12-20T02:07:32;11.93;;;4.80;;
4096;SDS011;2062;50.694;7.246;2023-12-20T02:10:00;11.30;;;4.30;;
4096;SDS011;2062;50.694;7.246;2023-12-20T02:12:27;13.93;;;5.15;;
4096;SDS011;2062;50.694;7.246;2023-12-20T02:14:55;12.50;;;4.57;;
4096;SDS011;2062;50.694;7.246;2023-12-20T02:17:22;13.73;;;5.22;;
4096;SDS011;2062;50.694;7.246;2023-12-20T02:19:49;12.77;;;4.90;;
4096;SDS011;2062;50.694;7.246;2023-12-20T02:22:17;12.02;;;4.90;;
4096;SDS011;2062;50.694;7.246;2023-12-20T02:24:44;16.20;;;5.43;;
4096;SDS011;2062;50.694;7.246;2023-12-20T02:27:11;13.18;;;5.47;;
4096;SDS011;2062;50.694;7.246;2023-12-20T02:29:38;14.48;;;5.50;;
4096;SDS011;2062;50.694;7.246;2023-12-20T02:32:05;11.60;;;5.53;;
4096;SDS011;2062;50.694;7.246;2023-12-20T02:34:32;15.63;;;5.63;;
4096;SDS011;2062;50.694;7.246;2023-12-20T02:36:59;14.85;;;5.55;;
4096;SDS011;2062;50.694;7.246;2023-12-20T02:39:27;14.65;;;5.70;;
4096;SDS011;2062;50.694;7.246;2023-12-20T02:41:54;16.55;;;5.50;;
4096;SDS011;2062;50.694;7.246;2023-12-20T02:44:21;13.13;;;4.63;;
4096;SDS011;2062;50.694;7.246;2023-12-20T02:46:47;15.52;;;4.50;;
4096;SDS011;2062;50.694;7.246;2023-12-20T02:49:14;12.20;;;3.95;;
4096;SDS011;2062;50.694;7.246;2023-12-20T02:51:41;11.52;;;3.70;;
4096;SDS011;2062;50.694;7.246;2023-12-20T02:54:08;14.05;;;3.60;;
4096;SDS011;2062;50.694;7.246;2023-12-20T02:56:36;10.63;;;3.20;;
4096;SDS011;2062;50.694;7.246;2023-12-20T02:59:03;12.25;;;2.70;;
4096;SDS011;2062;50.694;7.246;2023-12-20T03:01:30;12.45;;;3.00;;
4096;SDS011;2062;50.694;7.246;2023-12-20T03:03:57;11.70;;;2.78;;
4096;SDS011;2062;50.694;7.246;2023-12-20T03:06:24;9.05;;;2.63;;
4096;SDS011;2062;50.694;7.246;2023-12-20T03:08:51;11.53;;;2.63;;
4096;SDS011;2062;50.694;7.246;2023-12-20T03:11:17;14.15;;;2.70;;
4096;SDS011;2062;50.694;7.246;2023-12-20T03:13:46;15.73;;;2.70;;
4096;SDS011;2062;50.694;7.246;2023-12-20T03:16:13;8.05;;;1.90;;
4096;SDS011;2062;50.694;7.246;2023-12-20T03:18:41;14.40;;;2.85;;
4096;SDS011;2062;50.694;7.246;2023-12-20T03:21:07;7.27;;;2.00;;
4096;SDS011;2062;50.694;7.246;2023-12-20T03:23:34;9.95;;;2.25;;
4096;SDS011;2062;50.694;7.246;2023-12-20T03:26:01;12.13;;;2.13;;
4096;SDS011;2062;50.694;7.246;2023-12-20T03:28:29;8.35;;;2.03;;
4096;SDS011;2062;50.694;7.246;2023-12-20T03:30:57;11.40;;;2.10;;
4096;SDS011;2062;50.694;7.246;2023-12-20T03:33:24;7.20;;;1.50;;
4096;SDS011;2062;50.694;7.246;2023-12-20T03:35:51;10.07;;;1.40;;
4096;SDS011;2062;50.694;7.246;2023-12-20T03:38:17;9.95;;;2.08;;
4096;SDS011;2062;50.694;7.246;2023-12-20T03:40:44;6.97;;;1.70;;
4096;SDS011;2062;50.694;7.246;2023-12-20T03:43:11;8.50;;;1.58;;
4096;SDS011;2062;50.694;7.246;2023-12-20T03:45:38;9.10;;;1.50;;
4096;SDS011;2062;50.694;7.246;2023-12-20T03:48:06;10.65;;;2.13;;
4096;SDS011;2062;50.694;7.246;2023-12-20T03:50:33;11.05;;;1.60;;
4096;SDS011;2062;50.694;7.246;2023-12-20T03:53:00;12.27;;;1.77;;
4096;SDS011;2062;50.694;7.246;2023-12-20T03:55:27;6.18;;;1.40;;
4096;SDS011;2062;50.694;7.246;2023-12-20T03:57:54;11.73;;;1.60;;
4096;SDS011;2062;50.694;7.246;2023-12-20T04:00:21;4.93;;;1.50;;
4096;SDS011;2062;50.694;7.246;2023-12-20T04:02:47;11.07;;;1.92;;
4096;SDS011;2062;50.694;7.246;2023-12-20T04:05:15;10.63;;;1.65;;
4096;SDS011;2062;50.694;7.246;2023-12-20T04:07:42;10.27;;;1.63;;
4096;SDS011;2062;50.694;7.246;2023-12-20T04:10:09;12.97;;;1.70;;
4096;SDS011;2062;50.694;7.246;2023-12-20T04:12:36;9.77;;;1.63;;
4096;SDS011;2062;50.694;7.246;2023-12-20T04:15:03;12.73;;;1.70;;
4096;SDS011;2062;50.694;7.246;2023-12-20T04:17:34;9.45;;;2.00;;
4096;SDS011;2062;50.694;7.246;2023-12-20T04:20:00;7.32;;;1.60;;
4096;SDS011;2062;50.694;7.246;2023-12-20T04:22:29;8.20;;;1.73;;
4096;SDS011;2062;50.694;7.246;2023-12-20T04:24:56;9.23;;;1.95;;
4096;SDS011;2062;50.694;7.246;2023-12-20T04:27:23;10.32;;;1.83;;
4096;SDS011;2062;50.694;7.246;2023-12-20T04:29:49;10.35;;;1.83;;
4096;SDS011;2062;50.694;7.246;2023-12-20T04:32:16;9.63;;;1.60;;
4096;SDS011;2062;50.694;7.246;2023-12-20T04:34:43;11.37;;;1.97;;
4096;SDS011;2062;50.694;7.246;2023-12-20T04:37:10;8.88;;;1.92;;
4096;SDS011;2062;50.694;7.246;2023-12-20T04:39:38;13.30;;;1.85;;
4096;SDS011;2062;50.694;7.246;2023-12-20T04:42:06;8.85;;;2.22;;
4096;SDS011;2062;50.694;7.246;2023-12-20T04:44:33;10.75;;;2.35;;
4096;SDS011;2062;50.694;7.246;2023-12-20T04:47:00;15.33;;;2.70;;
4096;SDS011;2062;50.694;7.246;2023-12-20T04:49:26;11.38;;;2.33;;
4096;SDS011;2062;50.694;7.246;2023-12-20T04:51:53;8.27;;;2.17;;
4096;SDS011;2062;50.694;7.246;2023-12-20T04:54:20;11.18;;;2.00;;
4096;SDS011;2062;50.694;7.246;2023-12-20T04:56:49;9.85;;;2.03;;
4096;SDS011;2062;50.694;7.246;2023-12-20T04:59:16;14.57;;;2.30;;
4096;SDS011;2062;50.694;7.246;2023-12-20T05:01:42;9.50;;;2.17;;
4096;SDS011;2062;50.694;7.246;2023-12-20T05:04:09;13.20;;;2.45;;
4096;SDS011;2062;50.694;7.246;2023-12-20T05:06:36;12.55;;;2.42;;
4096;SDS011;2062;50.694;7.246;2023-12-20T05:09:03;8.52;;;2.30;;
4096;SDS011;2062;50.694;7.246;2023-12-20T05:11:29;10.67;;;2.67;;
4096;SDS011;2062;50.694;7.246;2023-12-20T05:13:57;10.98;;;2.30;;
4096;SDS011;2062;50.694;7.246;2023-12-20T05:16:24;9.90;;;2.28;;
4096;SDS011;2062;50.694;7.246;2023-12-20T05:18:51;13.02;;;2.72;;
4096;SDS011;2062;50.694;7.246;2023-12-20T05:21:18;11.52;;;2.50;;
4096;SDS011;2062;50.694;7.246;2023-12-20T05:23:45;11.40;;;2.40;;
4096;SDS011;2062;50.694;7.246;2023-12-20T05:26:11;8.10;;;2.30;;
4096;SDS011;2062;50.694;7.246;2023-12-20T05:28:38;13.18;;;2.80;;
4096;SDS011;2062;50.694;7.246;2023-12-20T05:31:06;11.38;;;2.67;;
4096;SDS011;2062;50.694;7.246;2023-12-20T05:33:34;12.13;;;2.47;;
4096;SDS011;2062;50.694;7.246;2023-12-20T05:36:00;13.33;;;2.50;;
4096;SDS011;2062;50.694;7.246;2023-12-20T05:38:27;8.30;;;2.28;;
4096;SDS011;2062;50.694;7.246;2023-12-20T05:40:54;11.75;;;2.30;;
4096;SDS011;2062;50.694;7.246;2023-12-20T05:43:21;9.75;;;2.65;;
4096;SDS011;2062;50.694;7.246;2023-12-20T05:45:47;11.52;;;2.35;;
4096;SDS011;2062;50.694;7.246;2023-12-20T05:48:16;12.03;;;2.13;;
4096;SDS011;2062;50.694;7.246;2023-12-20T05:50:42;12.32;;;2.20;;
4096;SDS011;2062;50.694;7.246;2023-12-20T05:53:09;10.45;;;2.20;;
4096;SDS011;2062;50.694;7.246;2023-12-20T05:55:36;9.50;;;2.75;;
4096;SDS011;2062;50.694;7.246;2023-12-20T05:58:03;10.52;;;2.28;;
4096;SDS011;2062;50.694;7.246;2023-12-20T06:00:30;10.87;;;2.30;;
4096;SDS011;2062;50.694;7.246;2023-12-20T06:02:57;16.58;;;2.90;;
4096;SDS011;2062;50.694;7.246;2023-12-20T06:05:25;13.05;;;2.80;;
4096;SDS011;2062;50.694;7.246;2023-12-20T06:07:52;7.75;;;2.30;;
4096;SDS011;2062;50.694;7.246;2023-12-20T06:10:19;11.45;;;2.33;;
4096;SDS011;2062;50.694;7.246;2023-12-20T06:12:47;11.47;;;2.17;;
4096;SDS011;2062;50.694;7.246;2023-12-20T06:15:15;15.13;;;2.40;;
4096;SDS011;2062;50.694;7.246;2023-12-20T06:17:42;20.10;;;3.20;;
4096;SDS011;2062;50.694;7.246;2023-12-20T06:20:09;10.15;;;2.50;;
4096;SDS011;2062;50.694;7.246;2023-12-20T06:22:38;13.93;;;2.80;;
4096;SDS011;2062;50.694;7.246;2023-12-20T06:25:05;9.33;;;2.60;;
4096;SDS011;2062;50.694;7.246;2023-12-20T06:27:32;10.63;;;2.70;;
4096;SDS011;2062;50.694;7.246;2023-12-20T06:29:59;13.23;;;2.45;;
4096;SDS011;2062;50.694;7.246;2023-12-20T06:32:25;9.07;;;2.42;;
4096;SDS011;2062;50.694;7.246;2023-12-20T06:34:54;11.85;;;2.70;;
4096;SDS011;2062;50.694;7.246;2023-12-20T06:37:21;10.43;;;2.73;;
4096;SDS011;2062;50.694;7.246;2023-12-20T06:39:49;13.10;;;2.38;;
4096;SDS011;2062;50.694;7.246;2023-12-20T06:42:16;9.68;;;2.30;;
4096;SDS011;2062;50.694;7.246;2023-12-20T06:44:42;13.10;;;2.72;;
4096;SDS011;2062;50.694;7.246;2023-12-20T06:47:09;14.98;;;2.85;;
4096;SDS011;2062;50.694;7.246;2023-12-20T06:49:36;10.00;;;2.30;;
4096;SDS011;2062;50.694;7.246;2023-12-20T06:52:03;10.18;;;2.17;;
4096;SDS011;2062;50.694;7.246;2023-12-20T06:54:30;12.07;;;2.42;;
4096;SDS011;2062;50.694;7.246;2023-12-20T06:57:00;19.15;;;2.67;;
4096;SDS011;2062;50.694;7.246;2023-12-20T06:59:28;14.85;;;3.08;;
4096;SDS011;2062;50.694;7.246;2023-12-20T07:01:55;11.47;;;2.53;;
4096;SDS011;2062;50.694;7.246;2023-12-20T07:04:21;15.77;;;2.53;;
4096;SDS011;2062;50.694;7.246;2023-12-20T07:06:48;13.75;;;2.67;;
4096;SDS011;2062;50.694;7.246;2023-12-20T07:09:17;13.60;;;2.28;;
4096;SDS011;2062;50.694;7.246;2023-12-20T07:11:44;10.82;;;2.45;;
4096;SDS011;2062;50.694;7.246;2023-12-20T07:14:12;11.90;;;2.63;;
4096;SDS011;2062;50.694;7.246;2023-12-20T07:16:38;14.52;;;2.50;;
4096;SDS011;2062;50.694;7.246;2023-12-20T07:19:06;10.93;;;2.45;;
4096;SDS011;2062;50.694;7.246;2023-12-20T07:21:33;12.60;;;2.38;;
4096;SDS011;2062;50.694;7.246;2023-12-20T07:23:59;11.18;;;2.22;;
4096;SDS011;2062;50.694;7.246;2023-12-20T07:26:26;13.80;;;2.70;;
4096;SDS011;2062;50.694;7.246;2023-12-20T07:28:53;14.32;;;2.08;;
4096;SDS011;2062;50.694;7.246;2023-12-20T07:31:21;11.43;;;2.42;;
4096;SDS011;2062;50.694;7.246;2023-12-20T07:33:49;7.55;;;2.17;;
4096;SDS011;2062;50.694;7.246;2023-12-20T07:36:15;13.80;;;3.15;;
4096;SDS011;2062;50.694;7.246;2023-12-20T07:38:42;13.60;;;2.67;;
4096;SDS011;2062;50.694;7.246;2023-12-20T07:41:09;13.68;;;2.28;;
4096;SDS011;2062;50.694;7.246;2023-12-20T07:43:36;8.43;;;2.30;;
4096;SDS011;2062;50.694;7.246;2023-12-20T07:46:04;15.35;;;2.70;;
4096;SDS011;2062;50.694;7.246;2023-12-20T07:48:33;15.15;;;2.83;;
4096;SDS011;2062;50.694;7.246;2023-12-20T07:51:00;14.87;;;2.67;;
4096;SDS011;2062;50.694;7.246;2023-12-20T07:53:27;10.50;;;2.22;;
4096;SDS011;2062;50.694;7.246;2023-12-20T07:55:54;10.07;;;2.58;;
4096;SDS011;2062;50.694;7.246;2023-12-20T07:58:21;14.43;;;2.67;;
4096;SDS011;2062;50.694;7.246;2023-12-20T08:00:48;13.63;;;2.58;;
4096;SDS011;2062;50.694;7.246;2023-12-20T08:03:14;10.10;;;2.40;;
4096;SDS011;2062;50.694;7.246;2023-12-20T08:05:43;14.15;;;2.58;;
4096;SDS011;2062;50.694;7.246;2023-12-20T08:08:09;10.65;;;1.90;;
4096;SDS011;2062;50.694;7.246;2023-12-20T08:10:36;11.55;;;2.35;;
4096;SDS011;2062;50.694;7.246;2023-12-20T08:13:03;14.60;;;2.95;;
4096;SDS011;2062;50.694;7.246;2023-12-20T08:15:30;14.60;;;2.27;;
4096;SDS011;2062;50.694;7.246;2023-12-20T08:17:57;11.35;;;2.55;;
4096;SDS011;2062;50.694;7.246;2023-12-20T08:20:23;13.00;;;2.58;;
4096;SDS011;2062;50.694;7.246;2023-12-20T08:22:51;14.43;;;2.35;;
4096;SDS011;2062;50.694;7.246;2023-12-20T08:25:18;10.90;;;2.42;;
4096;SDS011;2062;50.694;7.246;2023-12-20T08:27:45;12.10;;;2.67;;
4096;SDS011;2062;50.694;7.246;2023-12-20T08:30:12;10.85;;;2.33;;
4096;SDS011;2062;50.694;7.246;2023-12-20T08:32:39;9.93;;;2.38;;
4096;SDS011;2062;50.694;7.246;2023-12-20T08:35:05;12.80;;;2.20;;
4096;SDS011;2062;50.694;7.246;2023-12-20T08:37:32;16.02;;;2.70;;
4096;SDS011;2062;50.694;7.246;2023-12-20T08:40:02;9.60;;;2.30;;
4096;SDS011;2062;50.694;7.246;2023-12-20T08:42:29;13.70;;;2.50;;
4096;SDS011;2062;50.694;7.246;2023-12-20T08:44:56;8.20;;;2.45;;
4096;SDS011;2062;50.694;7.246;2023-12-20T08:47:24;18.58;;;3.15;;
4096;SDS011;2062;50.694;7.246;2023-12-20T08:49:50;12.02;;;2.53;;
4096;SDS011;2062;50.694;7.246;2023-12-20T08:52:21;10.67;;;2.10;;
4096;SDS011;2062;50.694;7.246;2023-12-20T08:54:48;16.48;;;2.80;;
4096;SDS011;2062;50.694;7.246;2023-12-20T08:57:18;10.25;;;2.90;;
4096;SDS011;2062;50.694;7.246;2023-12-20T08:59:46;15.68;;;2.95;;
4096;SDS011;2062;50.694;7.246;2023-12-20T09:02:13;13.73;;;2.30;;
4096;SDS011;2062;50.694;7.246;2023-12-20T09:04:40;16.73;;;2.83;;
4096;SDS011;2062;50.694;7.246;2023-12-20T09:07:07;10.50;;;2.30;;
4096;SDS011;2062;50.694;7.246;2023-12-20T09:09:46;10.23;;;2.58;;
4096;SDS011;2062;50.694;7.246;2023-12-20T09:12:13;15.15;;;2.40;;
4096;SDS011;2062;50.694;7.246;2023-12-20T09:14:41;12.35;;;2.35;;
4096;SDS011;2062;50.694;7.246;2023-12-20T09:17:08;12.33;;;2.47;;
4096;SDS011;2062;50.694;7.246;2023-12-20T09:19:36;14.45;;;2.20;;
4096;SDS011;2062;50.694;7.246;2023-12-20T09:22:03;15.63;;;2.58;;
4096;SDS011;2062;50.694;7.246;2023-12-20T09:24:30;11.73;;;2.15;;
4096;SDS011;2062;50.694;7.246;2023-12-20T09:26:57;8.70;;;2.15;;
4096;SDS011;2062;50.694;7.246;2023-12-20T09:29:24;7.97;;;1.83;;
4096;SDS011;2062;50.694;7.246;2023-12-20T09:31:52;11.73;;;2.35;;
4096;SDS011;2062;50.694;7.246;2023-12-20T09:34:18;11.35;;;1.95;;
4096;SDS011;2062;50.694;7.246;2023-12-20T09:36:46;9.90;;;2.00;;
4096;SDS011;2062;50.694;7.246;2023-12-20T09:39:13;14.20;;;2.50;;
4096;SDS011;2062;50.694;7.246;2023-12-20T09:41:41;8.63;;;2.20;;
4096;SDS011;2062;50.694;7.246;2023-12-20T09:44:10;11.27;;;2.35;;
4096;SDS011;2062;50.694;7.246;2023-12-20T09:46:42;7.57;;;1.67;;
4096;SDS011;2062;50.694;7.246;2023-12-20T09:49:12;8.07;;;2.13;;
4096;SDS011;2062;50.694;7.246;2023-12-20T09:51:40;9.40;;;2.10;;
4096;SDS011;2062;50.694;7.246;2023-12-20T09:54:07;13.97;;;1.73;;
4096;SDS011;2062;50.694;7.246;2023-12-20T09:56:35;17.25;;;2.35;;
4096;SDS011;2062;50.694;7.246;2023-12-20T09:59:03;8.40;;;2.30;;
4096;SDS011;2062;50.694;7.246;2023-12-20T10:01:30;9.43;;;2.00;;
4096;SDS011;2062;50.694;7.246;2023-12-20T10:03:58;10.40;;;2.67;;
4096;SDS011;2062;50.694;7.246;2023-12-20T10:06:28;10.90;;;2.30;;
4096;SDS011;2062;50.694;7.246;2023-12-20T10:08:55;13.00;;;1.83;;
4096;SDS011;2062;50.694;7.246;2023-12-20T10:11:21;11.20;;;1.80;;
4096;SDS011;2062;50.694;7.246;2023-12-20T10:13:48;6.38;;;1.50;;
4096;SDS011;2062;50.694;7.246;2023-12-20T10:16:15;9.07;;;1.70;;
4096;SDS011;2062;50.694;7.246;2023-12-20T10:18:42;7.93;;;1.90;;
4096;SDS011;2062;50.694;7.246;2023-12-20T10:21:09;10.52;;;1.90;;
4096;SDS011;2062;50.694;7.246;2023-12-20T10:23:38;12.23;;;1.98;;
4096;SDS011;2062;50.694;7.246;2023-12-20T10:26:05;10.75;;;1.77;;
4096;SDS011;2062;50.694;7.246;2023-12-20T10:28:33;10.10;;;2.03;;
4096;SDS011;2062;50.694;7.246;2023-12-20T10:31:00;11.03;;;2.10;;
4096;SDS011;2062;50.694;7.246;2023-12-20T10:33:27;14.23;;;2.17;;
4096;SDS011;2062;50.694;7.246;2023-12-20T10:35:57;10.68;;;1.90;;
4096;SDS011;2062;50.694;7.246;2023-12-20T10:38:24;11.63;;;2.20;;
4096;SDS011;2062;50.694;7.246;2023-12-20T10:40:53;6.10;;;1.85;;
4096;SDS011;2062;50.694;7.246;2023-12-20T10:43:23;11.93;;;1.93;;
4096;SDS011;2062;50.694;7.246;2023-12-20T10:45:52;11.93;;;2.25;;
4096;SDS011;2062;50.694;7.246;2023-12-20T10:48:18;9.73;;;2.00;;
4096;SDS011;2062;50.694;7.246;2023-12-20T10:50:47;12.32;;;2.03;;
4096;SDS011;2062;50.694;7.246;2023-12-20T10:53:15;8.35;;;1.73;;
4096;SDS011;2062;50.694;7.246;2023-12-20T10:55:42;11.17;;;2.23;;
4096;SDS011;2062;50.694;7.246;2023-12-20T10:58:12;10.60;;;2.08;;
4096;SDS011;2062;50.694;7.246;2023-12-20T11:00:40;11.25;;;2.38;;
4096;SDS011;2062;50.694;7.246;2023-12-20T11:03:09;12.65;;;2.38;;
4096;SDS011;2062;50.694;7.246;2023-12-20T11:05:38;11.43;;;2.13;;
4096;SDS011;2062;50.694;7.246;2023-12-20T11:08:13;9.90;;;1.90;;
4096;SDS011;2062;50.694;7.246;2023-12-20T11:10:48;15.27;;;2.22;;
4096;SDS011;2062;50.694;7.246;2023-12-20T11:13:23;16.05;;;2.30;;
4096;SDS011;2062;50.694;7.246;2023-12-20T11:15:55;13.52;;;2.10;;
4096;SDS011;2062;50.694;7.246;2023-12-20T11:18:28;12.82;;;2.20;;
4096;SDS011;2062;50.694;7.246;2023-12-20T11:20:55;7.53;;;2.00;;
4096;SDS011;2062;50.694;7.246;2023-12-20T11:23:27;10.73;;;2.40;;
4096;SDS011;2062;50.694;7.246;2023-12-20T11:25:56;8.32;;;2.20;;
4096;SDS011;2062;50.694;7.246;2023-12-20T11:28:25;13.32;;;2.40;;
4096;SDS011;2062;50.694;7.246;2023-12-20T11:30:54;8.00;;;2.00;;
4096;SDS011;2062;50.694;7.246;2023-12-20T11:33:25;8.33;;;2.17;;
4096;SDS011;2062;50.694;7.246;2023-12-20T11:35:54;12.30;;;2.55;;
4096;SDS011;2062;50.694;7.246;2023-12-20T11:38:22;10.15;;;2.30;;
4096;SDS011;2062;50.694;7.246;2023-12-20T11:40:49;9.15;;;2.67;;
4096;SDS011;2062;50.694;7.246;2023-12-20T11:43:30;9.90;;;2.50;;
4096;SDS011;2062;50.694;7.246;2023-12-20T11:46:02;8.30;;;2.03;;
4096;SDS011;2062;50.694;7.246;2023-12-20T11:48:30;8.93;;;2.53;;
4096;SDS011;2062;50.694;7.246;2023-12-20T11:50:57;9.32;;;2.38;;
4096;SDS011;2062;50.694;7.246;2023-12-20T11:53:24;9.88;;;2.28;;
4096;SDS011;2062;50.694;7.246;2023-12-20T11:55:51;6.28;;;2.30;;
4096;SDS011;2062;50.694;7.246;2023-12-20T11:58:19;11.97;;;2.40;;
4096;SDS011;2062;50.694;7.246;2023-12-20T12:00:48;8.20;;;2.35;;
4096;SDS011;2062;50.694;7.246;2023-12-20T12:03:15;12.07;;;2.70;;
4096;SDS011;2062;50.694;7.246;2023-12-20T12:05:42;13.18;;;2.72;;
4096;SDS011;2062;50.694;7.246;2023-12-20T12:08:09;11.07;;;2.97;;
4096;SDS011;2062;50.694;7.246;2023-12-20T12:10:35;11.17;;;2.30;;
4096;SDS011;2062;50.694;7.246;2023-12-20T12:13:02;9.88;;;2.10;;
4096;SDS011;2062;50.694;7.246;2023-12-20T12:15:29;11.07;;;2.60;;
4096;SDS011;2062;50.694;7.246;2023-12-20T12:17:58;10.25;;;2.80;;
4096;SDS011;2062;50.694;7.246;2023-12-20T12:20:25;8.98;;;2.65;;
4096;SDS011;2062;50.694;7.246;2023-12-20T12:22:58;10.73;;;2.43;;
4096;SDS011;2062;50.694;7.246;2023-12-20T12:25:25;13.88;;;2.30;;
4096;SDS011;2062;50.694;7.246;2023-12-20T12:27:53;11.15;;;2.60;;
4096;SDS011;2062;50.694;7.246;2023-12-20T12:30:19;10.05;;;2.00;;
4096;SDS011;2062;50.694;7.246;2023-12-20T12:32:47;12.82;;;2.60;;
4096;SDS011;2062;50.694;7.246;2023-12-20T12:35:15;8.93;;;2.33;;
4096;SDS011;2062;50.694;7.246;2023-12-20T12:37:42;13.52;;;2.20;;
4096;SDS011;2062;50.694;7.246;2023-12-20T12:40:10;12.10;;;2.55;;
4096;SDS011;2062;50.694;7.246;2023-12-20T12:42:38;7.05;;;2.53;;
4096;SDS011;2062;50.694;7.246;2023-12-20T12:45:06;13.20;;;2.70;;
4096;SDS011;2062;50.694;7.246;2023-12-20T12:47:33;11.23;;;2.60;;
4096;SDS011;2062;50.694;7.246;2023-12-20T12:50:00;10.27;;;2.42;;
4096;SDS011;2062;50.694;7.246;2023-12-20T12:52:29;11.20;;;2.38;;
4096;SDS011;2062;50.694;7.246;2023-12-20T12:54:56;7.78;;;2.10;;
4096;SDS011;2062;50.694;7.246;2023-12-20T12:57:23;9.18;;;2.45;;
4096;SDS011;2062;50.694;7.246;2023-12-20T12:59:50;9.93;;;2.27;;
4096;SDS011;2062;50.694;7.246;2023-12-20T13:02:17;8.25;;;2.58;;
4096;SDS011;2062;50.694;7.246;2023-12-20T13:04:43;7.68;;;2.20;;
4096;SDS011;2062;50.694;7.246;2023-12-20T13:07:11;7.82;;;2.35;;
4096;SDS011;2062;50.694;7.246;2023-12-20T13:09:40;10.35;;;2.72;;
4096;SDS011;2062;50.694;7.246;2023-12-20T13:12:07;8.80;;;3.10;;
4096;SDS011;2062;50.694;7.246;2023-12-20T13:14:35;8.77;;;2.40;;
4096;SDS011;2062;50.694;7.246;2023-12-20T13:17:03;9.57;;;2.50;;
4096;SDS011;2062;50.694;7.246;2023-12-20T13:19:31;9.95;;;2.58;;
4096;SDS011;2062;50.694;7.246;2023-12-20T13:21:58;8.55;;;2.28;;
4096;SDS011;2062;50.694;7.246;2023-12-20T13:24:25;7.70;;;2.53;;
4096;SDS011;2062;50.694;7.246;2023-12-20T13:26:53;9.07;;;2.45;;
4096;SDS011;2062;50.694;7.246;2023-12-20T13:29:19;13.82;;;2.60;;
4096;SDS011;2062;50.694;7.246;2023-12-20T13:31:46;9.57;;;2.50;;
4096;SDS011;2062;50.694;7.246;2023-12-20T13:34:13;7.68;;;2.05;;
4096;SDS011;2062;50.694;7.246;2023-12-20T13:36:42;11.27;;;2.63;;
4096;SDS011;2062;50.694;7.246;2023-12-20T13:39:10;12.20;;;2.67;;
4096;SDS011;2062;50.694;7.246;2023-12-20T13:41:38;8.80;;;2.60;;
4096;SDS011;2062;50.694;7.246;2023-12-20T13:44:06;9.82;;;2.42;;
4096;SDS011;2062;50.694;7.246;2023-12-20T13:46:32;10.93;;;2.88;;
4096;SDS011;2062;50.694;7.246;2023-12-20T13:48:59;9.37;;;2.53;;
4096;SDS011;2062;50.694;7.246;2023-12-20T13:51:26;10.00;;;2.78;;
4096;SDS011;2062;50.694;7.246;2023-12-20T13:53:53;12.07;;;2.50;;
4096;SDS011;2062;50.694;7.246;2023-12-20T13:56:20;7.07;;;2.17;;
4096;SDS011;2062;50.694;7.246;2023-12-20T13:58:48;9.48;;;2.83;;
4096;SDS011;2062;50.694;7.246;2023-12-20T14:01:17;9.63;;;2.30;;
4096;SDS011;2062;50.694;7.246;2023-12-20T14:03:43;7.13;;;2.38;;
4096;SDS011;2062;50.694;7.246;2023-12-20T14:06:10;9.82;;;2.30;;
4096;SDS011;2062;50.694;7.246;2023-12-20T14:08:38;11.55;;;2.60;;
4096;SDS011;2062;50.694;7.246;2023-12-20T14:11:06;8.85;;;2.45;;
4096;SDS011;2062;50.694;7.246;2023-12-20T14:13:33;9.47;;;2.43;;
4096;SDS011;2062;50.694;7.246;2023-12-20T14:16:00;8.43;;;2.50;;
4096;SDS011;2062;50.694;7.246;2023-12-20T14:18:30;8.80;;;2.42;;
4096;SDS011;2062;50.694;7.246;2023-12-20T14:20:57;5.53;;;2.17;;
4096;SDS011;2062;50.694;7.246;2023-12-20T14:23:24;8.38;;;2.20;;
4096;SDS011;2062;50.694;7.246;2023-12-20T14:25:50;10.20;;;2.57;;
4096;SDS011;2062;50.694;7.246;2023-12-20T14:28:17;7.05;;;2.13;;
4096;SDS011;2062;50.694;7.246;2023-12-20T14:30:44;7.22;;;2.03;;
4096;SDS011;2062;50.694;7.246;2023-12-20T14:33:11;8.75;;;2.15;;
4096;SDS011;2062;50.694;7.246;2023-12-20T14:35:40;7.88;;;2.53;;
4096;SDS011;2062;50.694;7.246;2023-12-20T14:38:07;9.37;;;1.90;;
4096;SDS011;2062;50.694;7.246;2023-12-20T14:40:34;8.00;;;1.80;;
4096;SDS011;2062;50.694;7.246;2023-12-20T14:43:01;7.90;;;1.92;;
4096;SDS011;2062;50.694;7.246;2023-12-20T14:45:29;7.78;;;1.80;;
4096;SDS011;2062;50.694;7.246;2023-12-20T14:47:56;7.30;;;1.50;;
4096;SDS011;2062;50.694;7.246;2023-12-20T14:50:23;6.33;;;1.40;;
4096;SDS011;2062;50.694;7.246;2023-12-20T14:52:52;7.90;;;1.45;;
4096;SDS011;2062;50.694;7.246;2023-12-20T14:55:20;4.75;;;1.13;;
4096;SDS011;2062;50.694;7.246;2023-12-20T14:57:47;4.80;;;1.25;;
4096;SDS011;2062;50.694;7.246;2023-12-20T15:00:14;5.35;;;1.48;;
4096;SDS011;2062;50.694;7.246;2023-12-20T15:02:42;5.10;;;1.10;;
4096;SDS011;2062;50.694;7.246;2023-12-20T15:05:08;7.22;;;1.20;;
4096;SDS011;2062;50.694;7.246;2023-12-20T15:07:35;4.72;;;1.20;;
4096;SDS011;2062;50.694;7.246;2023-12-20T15:10:04;3.60;;;0.80;;